sensor_id;sensor_type;location;lat;lon;timestamp;temperature;humidity
22795;DHT22;11564;50.920;11.612;2022-10-22T00:00:07;12.20;99.90
22795;DHT22;11564;50.920;11.612;2022-10-22T00:02:33;12.20;99.90
22795;DHT22;11564;50.920;11.612;2022-10-22T00:04:58;12.10;99.90
22795;DHT22;11564;50.920;11.612;2022-10-22T00:07:24;12.00;99.90
22795;DHT22;11564;50.920;11.612;2022-10-22T00:09:50;11.90;99.90
22795;DHT22;11564;50.920;11.612;2022-10-22T00:12:15;11.90;99.90
22795;DHT22;11564;50.920;11.612;2022-10-22T00:14:41;11.80;99.90
22795;DHT22;11564;50.920;11.612;2022-10-22T00:17:07;11.80;99.90
22795;DHT22;11564;50.920;11.612;2022-10-22T00:19:33;11.80;99.90
22795;DHT22;11564;50.920;11.612;2022-10-22T00:21:58;11.90;99.90
22795;DHT22;11564;50.920;11.612;2022-10-22T00:24:24;12.00;99.90
22795;DHT22;11564;50.920;11.612;2022-10-22T00:26:50;12.20;99.90
22795;DHT22;11564;50.920;11.612;2022-10-22T00:29:15;12.30;99.90
22795;DHT22;11564;50.920;11.612;2022-10-22T00:31:44;12.40;99.90
22795;DHT22;11564;50.920;11.612;2022-10-22T00:34:20;12.40;99.90
22795;DHT22;11564;50.920;11.612;2022-10-22T00:36:46;12.60;99.90
22795;DHT22;11564;50.920;11.612;2022-10-22T00:39:16;12.70;99.90
22795;DHT22;11564;50.920;11.612;2022-10-22T00:41:42;12.90;99.90
22795;DHT22;11564;50.920;11.612;2022-10-22T00:44:57;13.00;99.90
22795;DHT22;11564;50.920;11.612;2022-10-22T00:46:53;13.10;99.90
22795;DHT22;11564;50.920;11.612;2022-10-22T00:49:18;13.20;99.90
22795;DHT22;11564;50.920;11.612;2022-10-22T00:51:44;13.20;99.90
22795;DHT22;11564;50.920;11.612;2022-10-22T00:54:09;13.30;99.90
22795;DHT22;11564;50.920;11.612;2022-10-22T00:56:35;13.30;99.90
22795;DHT22;11564;50.920;11.612;2022-10-22T00:59:01;13.30;99.90
22795;DHT22;11564;50.920;11.612;2022-10-22T01:01:28;13.00;99.90
22795;DHT22;11564;50.920;11.612;2022-10-22T01:03:54;12.70;99.90
22795;DHT22;11564;50.920;11.612;2022-10-22T01:06:24;12.60;99.90
22795;DHT22;11564;50.920;11.612;2022-10-22T01:09:34;12.40;99.90
22795;DHT22;11564;50.920;11.612;2022-10-22T01:14:19;12.30;99.90
22795;DHT22;11564;50.920;11.612;2022-10-22T01:19:35;12.30;99.90
22795;DHT22;11564;50.920;11.612;2022-10-22T01:22:15;12.30;99.90
22795;DHT22;11564;50.920;11.612;2022-10-22T01:29:59;12.40;99.90
22795;DHT22;11564;50.920;11.612;2022-10-22T01:32:26;12.40;99.90
22795;DHT22;11564;50.920;11.612;2022-10-22T01:34:59;12.40;99.90
22795;DHT22;11564;50.920;11.612;2022-10-22T01:37:25;12.40;99.90
22795;DHT22;11564;50.920;11.612;2022-10-22T01:39:52;12.40;99.90
22795;DHT22;11564;50.920;11.612;2022-10-22T01:42:18;12.40;99.90
22795;DHT22;11564;50.920;11.612;2022-10-22T01:44:44;12.30;99.90
22795;DHT22;11564;50.920;11.612;2022-10-22T01:57:35;12.10;99.90
22795;DHT22;11564;50.920;11.612;2022-10-22T02:00:07;12.10;99.90
22795;DHT22;11564;50.920;11.612;2022-10-22T02:05:16;12.10;99.90
22795;DHT22;11564;50.920;11.612;2022-10-22T02:07:48;12.10;99.90
22795;DHT22;11564;50.920;11.612;2022-10-22T02:10:14;12.10;99.90
22795;DHT22;11564;50.920;11.612;2022-10-22T02:12:42;12.10;99.90
22795;DHT22;11564;50.920;11.612;2022-10-22T02:15:07;12.10;99.90
22795;DHT22;11564;50.920;11.612;2022-10-22T02:17:34;12.10;99.90
22795;DHT22;11564;50.920;11.612;2022-10-22T02:20:05;12.00;99.90
22795;DHT22;11564;50.920;11.612;2022-10-22T02:22:31;11.90;99.90
22795;DHT22;11564;50.920;11.612;2022-10-22T02:24:57;12.00;99.90
22795;DHT22;11564;50.920;11.612;2022-10-22T02:27:30;11.90;99.90
22795;DHT22;11564;50.920;11.612;2022-10-22T02:30:04;11.90;99.90
22795;DHT22;11564;50.920;11.612;2022-10-22T02:32:32;11.90;99.90
22795;DHT22;11564;50.920;11.612;2022-10-22T02:34:58;12.00;99.90
22795;DHT22;11564;50.920;11.612;2022-10-22T02:37:25;12.10;99.90
22795;DHT22;11564;50.920;11.612;2022-10-22T02:39:51;12.20;99.90
22795;DHT22;11564;50.920;11.612;2022-10-22T02:42:16;12.10;99.90
22795;DHT22;11564;50.920;11.612;2022-10-22T02:44:42;12.00;99.90
22795;DHT22;11564;50.920;11.612;2022-10-22T02:47:08;11.90;99.90
22795;DHT22;11564;50.920;11.612;2022-10-22T02:49:33;12.00;99.90
22795;DHT22;11564;50.920;11.612;2022-10-22T02:51:59;12.00;99.90
22795;DHT22;11564;50.920;11.612;2022-10-22T02:54:25;12.00;99.90
22795;DHT22;11564;50.920;11.612;2022-10-22T02:56:50;12.00;99.90
22795;DHT22;11564;50.920;11.612;2022-10-22T02:59:16;11.90;99.90
22795;DHT22;11564;50.920;11.612;2022-10-22T03:01:41;12.00;99.90
22795;DHT22;11564;50.920;11.612;2022-10-22T03:04:07;12.00;99.90
22795;DHT22;11564;50.920;11.612;2022-10-22T03:06:32;12.00;99.90
22795;DHT22;11564;50.920;11.612;2022-10-22T03:08:58;12.00;99.90
22795;DHT22;11564;50.920;11.612;2022-10-22T03:11:23;11.90;99.90
22795;DHT22;11564;50.920;11.612;2022-10-22T03:13:48;11.90;99.90
22795;DHT22;11564;50.920;11.612;2022-10-22T03:16:14;11.80;99.90
22795;DHT22;11564;50.920;11.612;2022-10-22T03:18:39;11.70;99.90
22795;DHT22;11564;50.920;11.612;2022-10-22T03:21:12;11.60;99.90
22795;DHT22;11564;50.920;11.612;2022-10-22T03:23:41;11.60;99.90
22795;DHT22;11564;50.920;11.612;2022-10-22T03:26:07;11.60;99.90
22795;DHT22;11564;50.920;11.612;2022-10-22T03:28:34;11.70;99.90
22795;DHT22;11564;50.920;11.612;2022-10-22T03:30:59;11.70;99.90
22795;DHT22;11564;50.920;11.612;2022-10-22T03:33:25;11.70;99.90
22795;DHT22;11564;50.920;11.612;2022-10-22T03:35:50;11.80;99.90
22795;DHT22;11564;50.920;11.612;2022-10-22T03:38:16;11.80;99.90
22795;DHT22;11564;50.920;11.612;2022-10-22T03:40:41;11.80;99.90
22795;DHT22;11564;50.920;11.612;2022-10-22T03:43:08;11.90;99.90
22795;DHT22;11564;50.920;11.612;2022-10-22T03:45:34;11.90;99.90
22795;DHT22;11564;50.920;11.612;2022-10-22T03:47:59;11.90;99.90
22795;DHT22;11564;50.920;11.612;2022-10-22T03:50:25;11.90;99.90
22795;DHT22;11564;50.920;11.612;2022-10-22T03:52:50;11.90;99.90
22795;DHT22;11564;50.920;11.612;2022-10-22T03:55:17;12.00;99.90
22795;DHT22;11564;50.920;11.612;2022-10-22T03:57:43;12.00;99.90
22795;DHT22;11564;50.920;11.612;2022-10-22T04:00:08;12.00;99.90
22795;DHT22;11564;50.920;11.612;2022-10-22T04:02:34;12.10;99.90
22795;DHT22;11564;50.920;11.612;2022-10-22T04:04:59;12.10;99.90
22795;DHT22;11564;50.920;11.612;2022-10-22T04:07:25;12.20;99.90
22795;DHT22;11564;50.920;11.612;2022-10-22T04:09:50;12.30;99.90
22795;DHT22;11564;50.920;11.612;2022-10-22T04:12:17;12.30;99.90
22795;DHT22;11564;50.920;11.612;2022-10-22T04:14:42;12.30;99.90
22795;DHT22;11564;50.920;11.612;2022-10-22T04:17:08;12.30;99.90
22795;DHT22;11564;50.920;11.612;2022-10-22T04:19:33;12.30;99.90
22795;DHT22;11564;50.920;11.612;2022-10-22T04:21:59;12.30;99.90
22795;DHT22;11564;50.920;11.612;2022-10-22T04:24:25;12.30;99.90
22795;DHT22;11564;50.920;11.612;2022-10-22T04:26:52;12.30;99.90
22795;DHT22;11564;50.920;11.612;2022-10-22T04:29:17;12.40;99.90
22795;DHT22;11564;50.920;11.612;2022-10-22T04:31:43;12.30;99.90
22795;DHT22;11564;50.920;11.612;2022-10-22T04:34:08;12.30;99.90
22795;DHT22;11564;50.920;11.612;2022-10-22T04:36:34;12.40;99.90
22795;DHT22;11564;50.920;11.612;2022-10-22T04:39:00;12.40;99.90
22795;DHT22;11564;50.920;11.612;2022-10-22T04:41:26;12.40;99.90
22795;DHT22;11564;50.920;11.612;2022-10-22T04:43:52;12.50;99.90
22795;DHT22;11564;50.920;11.612;2022-10-22T04:46:18;12.60;99.90
22795;DHT22;11564;50.920;11.612;2022-10-22T04:48:44;12.60;99.90
22795;DHT22;11564;50.920;11.612;2022-10-22T04:51:11;12.70;99.90
22795;DHT22;11564;50.920;11.612;2022-10-22T04:53:37;12.70;99.90
22795;DHT22;11564;50.920;11.612;2022-10-22T04:56:18;12.90;99.90
22795;DHT22;11564;50.920;11.612;2022-10-22T04:58:45;12.90;99.90
22795;DHT22;11564;50.920;11.612;2022-10-22T05:01:11;13.00;99.90
22795;DHT22;11564;50.920;11.612;2022-10-22T05:03:37;13.00;99.90
22795;DHT22;11564;50.920;11.612;2022-10-22T05:06:02;13.00;99.90
22795;DHT22;11564;50.920;11.612;2022-10-22T05:08:28;13.00;99.90
22795;DHT22;11564;50.920;11.612;2022-10-22T05:10:53;13.10;99.90
22795;DHT22;11564;50.920;11.612;2022-10-22T05:13:19;13.20;99.90
22795;DHT22;11564;50.920;11.612;2022-10-22T05:15:44;13.40;99.90
22795;DHT22;11564;50.920;11.612;2022-10-22T05:18:10;13.50;99.90
22795;DHT22;11564;50.920;11.612;2022-10-22T05:20:38;13.60;99.90
22795;DHT22;11564;50.920;11.612;2022-10-22T05:23:03;13.60;99.90
22795;DHT22;11564;50.920;11.612;2022-10-22T05:25:29;13.60;99.90
22795;DHT22;11564;50.920;11.612;2022-10-22T05:27:55;13.60;99.90
22795;DHT22;11564;50.920;11.612;2022-10-22T05:30:20;13.80;99.90
22795;DHT22;11564;50.920;11.612;2022-10-22T05:32:46;13.90;99.90
22795;DHT22;11564;50.920;11.612;2022-10-22T05:35:11;14.00;99.90
22795;DHT22;11564;50.920;11.612;2022-10-22T05:37:37;13.90;99.90
22795;DHT22;11564;50.920;11.612;2022-10-22T05:40:02;14.00;99.90
22795;DHT22;11564;50.920;11.612;2022-10-22T05:42:31;14.10;99.90
22795;DHT22;11564;50.920;11.612;2022-10-22T05:44:57;14.00;99.90
22795;DHT22;11564;50.920;11.612;2022-10-22T05:47:22;13.90;99.90
22795;DHT22;11564;50.920;11.612;2022-10-22T05:49:48;13.90;99.90
22795;DHT22;11564;50.920;11.612;2022-10-22T05:52:13;13.90;99.90
22795;DHT22;11564;50.920;11.612;2022-10-22T05:54:39;13.80;99.90
22795;DHT22;11564;50.920;11.612;2022-10-22T05:57:04;13.80;99.90
22795;DHT22;11564;50.920;11.612;2022-10-22T05:59:30;13.80;99.90
22795;DHT22;11564;50.920;11.612;2022-10-22T06:01:55;13.80;99.90
22795;DHT22;11564;50.920;11.612;2022-10-22T06:04:21;13.70;99.90
22795;DHT22;11564;50.920;11.612;2022-10-22T06:06:50;13.70;99.90
22795;DHT22;11564;50.920;11.612;2022-10-22T06:09:35;13.60;99.90
22795;DHT22;11564;50.920;11.612;2022-10-22T06:12:01;13.60;99.90
22795;DHT22;11564;50.920;11.612;2022-10-22T06:14:27;13.60;99.90
22795;DHT22;11564;50.920;11.612;2022-10-22T06:16:53;13.60;99.90
22795;DHT22;11564;50.920;11.612;2022-10-22T06:19:19;13.60;99.90
22795;DHT22;11564;50.920;11.612;2022-10-22T06:21:45;13.70;99.90
22795;DHT22;11564;50.920;11.612;2022-10-22T06:24:11;13.70;99.90
22795;DHT22;11564;50.920;11.612;2022-10-22T06:26:37;13.60;99.90
22795;DHT22;11564;50.920;11.612;2022-10-22T06:29:02;13.50;99.90
22795;DHT22;11564;50.920;11.612;2022-10-22T06:31:28;13.50;99.90
22795;DHT22;11564;50.920;11.612;2022-10-22T06:33:55;13.50;99.90
22795;DHT22;11564;50.920;11.612;2022-10-22T06:36:21;13.50;99.90
22795;DHT22;11564;50.920;11.612;2022-10-22T06:38:49;13.50;99.90
22795;DHT22;11564;50.920;11.612;2022-10-22T06:41:15;13.50;99.90
22795;DHT22;11564;50.920;11.612;2022-10-22T06:43:41;13.60;99.90
22795;DHT22;11564;50.920;11.612;2022-10-22T06:46:09;13.60;99.90
22795;DHT22;11564;50.920;11.612;2022-10-22T06:48:35;13.60;99.90
22795;DHT22;11564;50.920;11.612;2022-10-22T06:51:06;13.50;99.90
22795;DHT22;11564;50.920;11.612;2022-10-22T06:53:32;13.70;99.90
22795;DHT22;11564;50.920;11.612;2022-10-22T06:55:58;13.70;99.90
22795;DHT22;11564;50.920;11.612;2022-10-22T06:58:23;13.80;99.90
22795;DHT22;11564;50.920;11.612;2022-10-22T07:00:49;13.80;99.90
22795;DHT22;11564;50.920;11.612;2022-10-22T07:03:24;13.80;99.90
22795;DHT22;11564;50.920;11.612;2022-10-22T07:05:49;13.80;99.90
22795;DHT22;11564;50.920;11.612;2022-10-22T07:08:16;13.70;99.90
22795;DHT22;11564;50.920;11.612;2022-10-22T07:10:42;13.80;99.90
22795;DHT22;11564;50.920;11.612;2022-10-22T07:13:07;13.80;99.90
22795;DHT22;11564;50.920;11.612;2022-10-22T07:15:33;13.80;99.90
22795;DHT22;11564;50.920;11.612;2022-10-22T07:17:58;13.70;99.90
22795;DHT22;11564;50.920;11.612;2022-10-22T07:20:24;13.70;99.90
22795;DHT22;11564;50.920;11.612;2022-10-22T07:22:49;13.70;99.90
22795;DHT22;11564;50.920;11.612;2022-10-22T07:25:15;13.70;99.90
22795;DHT22;11564;50.920;11.612;2022-10-22T07:27:40;13.80;99.90
22795;DHT22;11564;50.920;11.612;2022-10-22T07:30:06;13.80;99.90
22795;DHT22;11564;50.920;11.612;2022-10-22T07:32:31;13.80;99.90
22795;DHT22;11564;50.920;11.612;2022-10-22T07:34:57;13.80;99.90
22795;DHT22;11564;50.920;11.612;2022-10-22T07:37:22;13.80;99.90
22795;DHT22;11564;50.920;11.612;2022-10-22T07:39:48;13.80;99.90
22795;DHT22;11564;50.920;11.612;2022-10-22T07:42:13;13.80;99.90
22795;DHT22;11564;50.920;11.612;2022-10-22T07:44:39;13.70;99.90
22795;DHT22;11564;50.920;11.612;2022-10-22T07:47:04;13.80;99.90
22795;DHT22;11564;50.920;11.612;2022-10-22T07:49:30;13.80;99.90
22795;DHT22;11564;50.920;11.612;2022-10-22T07:51:55;13.80;99.90
22795;DHT22;11564;50.920;11.612;2022-10-22T07:54:21;13.80;99.90
22795;DHT22;11564;50.920;11.612;2022-10-22T07:56:47;13.80;99.90
22795;DHT22;11564;50.920;11.612;2022-10-22T07:59:12;13.80;99.90
22795;DHT22;11564;50.920;11.612;2022-10-22T08:01:38;13.80;99.90
22795;DHT22;11564;50.920;11.612;2022-10-22T08:04:03;13.80;99.90
22795;DHT22;11564;50.920;11.612;2022-10-22T08:06:32;13.80;99.90
22795;DHT22;11564;50.920;11.612;2022-10-22T08:08:58;13.80;99.90
22795;DHT22;11564;50.920;11.612;2022-10-22T08:11:24;13.90;99.90
22795;DHT22;11564;50.920;11.612;2022-10-22T08:13:49;13.90;99.90
22795;DHT22;11564;50.920;11.612;2022-10-22T08:16:17;13.90;99.90
22795;DHT22;11564;50.920;11.612;2022-10-22T08:18:42;14.00;99.90
22795;DHT22;11564;50.920;11.612;2022-10-22T08:21:08;14.10;99.90
22795;DHT22;11564;50.920;11.612;2022-10-22T08:23:33;14.20;99.90
22795;DHT22;11564;50.920;11.612;2022-10-22T08:25:59;14.20;99.90
22795;DHT22;11564;50.920;11.612;2022-10-22T08:28:25;14.30;99.90
22795;DHT22;11564;50.920;11.612;2022-10-22T08:30:52;14.30;99.90
22795;DHT22;11564;50.920;11.612;2022-10-22T08:33:18;14.30;99.90
22795;DHT22;11564;50.920;11.612;2022-10-22T08:35:47;14.40;99.90
22795;DHT22;11564;50.920;11.612;2022-10-22T08:38:13;14.50;99.90
22795;DHT22;11564;50.920;11.612;2022-10-22T08:40:39;14.50;99.90
22795;DHT22;11564;50.920;11.612;2022-10-22T08:43:09;14.70;99.90
22795;DHT22;11564;50.920;11.612;2022-10-22T08:48:17;15.00;99.90
22795;DHT22;11564;50.920;11.612;2022-10-22T08:50:47;15.10;99.90
22795;DHT22;11564;50.920;11.612;2022-10-22T08:53:21;15.30;99.90
22795;DHT22;11564;50.920;11.612;2022-10-22T08:55:51;15.40;99.90
22795;DHT22;11564;50.920;11.612;2022-10-22T09:05:41;15.50;99.90
22795;DHT22;11564;50.920;11.612;2022-10-22T09:08:10;15.30;99.90
22795;DHT22;11564;50.920;11.612;2022-10-22T09:10:37;15.10;99.90
22795;DHT22;11564;50.920;11.612;2022-10-22T09:13:04;15.10;99.90
22795;DHT22;11564;50.920;11.612;2022-10-22T09:15:29;15.30;99.90
22795;DHT22;11564;50.920;11.612;2022-10-22T09:20:30;15.20;99.90
22795;DHT22;11564;50.920;11.612;2022-10-22T09:25:42;15.40;99.90
22795;DHT22;11564;50.920;11.612;2022-10-22T09:28:09;15.60;99.90
22795;DHT22;11564;50.920;11.612;2022-10-22T09:30:35;15.80;99.90
22795;DHT22;11564;50.920;11.612;2022-10-22T09:38:15;16.40;99.90
22795;DHT22;11564;50.920;11.612;2022-10-22T09:40:43;16.60;99.90
22795;DHT22;11564;50.920;11.612;2022-10-22T09:43:13;16.80;99.90
22795;DHT22;11564;50.920;11.612;2022-10-22T09:45:39;16.90;99.90
22795;DHT22;11564;50.920;11.612;2022-10-22T09:55:37;17.40;99.90
22795;DHT22;11564;50.920;11.612;2022-10-22T09:58:03;17.20;99.90
22795;DHT22;11564;50.920;11.612;2022-10-22T10:00:28;17.20;99.90
22795;DHT22;11564;50.920;11.612;2022-10-22T10:02:58;17.20;99.90
22795;DHT22;11564;50.920;11.612;2022-10-22T10:05:28;17.20;99.90
22795;DHT22;11564;50.920;11.612;2022-10-22T10:07:54;17.20;99.90
22795;DHT22;11564;50.920;11.612;2022-10-22T10:15:20;17.20;99.90
22795;DHT22;11564;50.920;11.612;2022-10-22T10:20:33;17.40;99.90
22795;DHT22;11564;50.920;11.612;2022-10-22T10:26:06;17.20;99.90
22795;DHT22;11564;50.920;11.612;2022-10-22T10:28:51;17.20;99.90
22795;DHT22;11564;50.920;11.612;2022-10-22T10:36:18;17.40;99.90
22795;DHT22;11564;50.920;11.612;2022-10-22T10:38:55;17.60;99.90
22795;DHT22;11564;50.920;11.612;2022-10-22T10:41:26;17.60;99.90
22795;DHT22;11564;50.920;11.612;2022-10-22T10:49:32;17.60;99.90
22795;DHT22;11564;50.920;11.612;2022-10-22T10:59:53;17.20;99.90
22795;DHT22;11564;50.920;11.612;2022-10-22T11:07:52;17.20;99.90
22795;DHT22;11564;50.920;11.612;2022-10-22T11:10:23;17.50;99.90
22795;DHT22;11564;50.920;11.612;2022-10-22T11:12:51;17.80;99.90
22795;DHT22;11564;50.920;11.612;2022-10-22T11:17:48;18.20;99.90
22795;DHT22;11564;50.920;11.612;2022-10-22T11:22:51;18.50;99.90
22795;DHT22;11564;50.920;11.612;2022-10-22T11:25:23;18.70;99.90
22795;DHT22;11564;50.920;11.612;2022-10-22T11:27:56;18.30;99.90
22795;DHT22;11564;50.920;11.612;2022-10-22T11:30:24;17.80;99.90
22795;DHT22;11564;50.920;11.612;2022-10-22T11:32:51;17.50;99.90
22795;DHT22;11564;50.920;11.612;2022-10-22T11:35:25;17.40;99.90
22795;DHT22;11564;50.920;11.612;2022-10-22T11:37:51;17.70;99.90
22795;DHT22;11564;50.920;11.612;2022-10-22T11:40:34;18.00;99.90
22795;DHT22;11564;50.920;11.612;2022-10-22T11:45:30;18.50;99.90
22795;DHT22;11564;50.920;11.612;2022-10-22T11:48:05;18.80;99.90
22795;DHT22;11564;50.920;11.612;2022-10-22T11:55:49;18.30;99.90
22795;DHT22;11564;50.920;11.612;2022-10-22T12:00:54;17.70;99.90
22795;DHT22;11564;50.920;11.612;2022-10-22T12:06:48;17.60;99.90
22795;DHT22;11564;50.920;11.612;2022-10-22T12:08:51;17.80;99.90
22795;DHT22;11564;50.920;11.612;2022-10-22T12:11:22;17.60;99.90
22795;DHT22;11564;50.920;11.612;2022-10-22T12:13:55;17.80;99.90
22795;DHT22;11564;50.920;11.612;2022-10-22T12:19:00;17.70;99.90
22795;DHT22;11564;50.920;11.612;2022-10-22T12:21:27;18.00;99.70
22795;DHT22;11564;50.920;11.612;2022-10-22T12:23:52;18.90;98.70
22795;DHT22;11564;50.920;11.612;2022-10-22T12:26:26;20.70;95.90
22795;DHT22;11564;50.920;11.612;2022-10-22T12:28:59;23.00;91.80
22795;DHT22;11564;50.920;11.612;2022-10-22T12:31:25;21.70;91.50
22795;DHT22;11564;50.920;11.612;2022-10-22T12:33:57;22.10;91.50
22795;DHT22;11564;50.920;11.612;2022-10-22T12:36:25;23.90;88.00
22795;DHT22;11564;50.920;11.612;2022-10-22T12:38:50;23.10;88.50
22795;DHT22;11564;50.920;11.612;2022-10-22T12:41:16;21.10;90.70
22795;DHT22;11564;50.920;11.612;2022-10-22T12:43:42;19.80;92.80
22795;DHT22;11564;50.920;11.612;2022-10-22T12:46:09;21.00;91.70
22795;DHT22;11564;50.920;11.612;2022-10-22T12:48:39;21.40;91.00
22795;DHT22;11564;50.920;11.612;2022-10-22T12:51:05;21.50;91.60
22795;DHT22;11564;50.920;11.612;2022-10-22T12:53:37;23.60;86.60
22795;DHT22;11564;50.920;11.612;2022-10-22T12:56:10;24.00;84.60
22795;DHT22;11564;50.920;11.612;2022-10-22T12:58:44;23.70;85.80
22795;DHT22;11564;50.920;11.612;2022-10-22T13:01:10;22.50;88.00
22795;DHT22;11564;50.920;11.612;2022-10-22T13:03:41;22.50;89.20
22795;DHT22;11564;50.920;11.612;2022-10-22T13:08:53;20.90;91.30
22795;DHT22;11564;50.920;11.612;2022-10-22T13:11:19;20.90;92.00
22795;DHT22;11564;50.920;11.612;2022-10-22T13:13:45;21.10;92.00
22795;DHT22;11564;50.920;11.612;2022-10-22T13:16:18;21.30;90.90
22795;DHT22;11564;50.920;11.612;2022-10-22T13:18:44;24.60;87.00
22795;DHT22;11564;50.920;11.612;2022-10-22T13:21:20;28.40;78.50
22795;DHT22;11564;50.920;11.612;2022-10-22T13:23:51;30.20;69.80
22795;DHT22;11564;50.920;11.612;2022-10-22T13:26:16;30.70;67.20
22795;DHT22;11564;50.920;11.612;2022-10-22T13:28:48;30.90;63.60
22795;DHT22;11564;50.920;11.612;2022-10-22T13:31:18;30.40;64.10
22795;DHT22;11564;50.920;11.612;2022-10-22T13:33:46;31.30;62.80
22795;DHT22;11564;50.920;11.612;2022-10-22T13:36:15;30.40;62.50
22795;DHT22;11564;50.920;11.612;2022-10-22T13:38:40;29.40;64.80
22795;DHT22;11564;50.920;11.612;2022-10-22T13:41:22;30.10;63.10
22795;DHT22;11564;50.920;11.612;2022-10-22T13:43:49;29.90;62.90
22795;DHT22;11564;50.920;11.612;2022-10-22T13:46:14;30.00;62.70
22795;DHT22;11564;50.920;11.612;2022-10-22T13:48:40;30.90;62.00
22795;DHT22;11564;50.920;11.612;2022-10-22T13:51:13;31.70;59.70
22795;DHT22;11564;50.920;11.612;2022-10-22T13:53:39;30.90;59.40
22795;DHT22;11564;50.920;11.612;2022-10-22T13:56:04;31.90;58.60
22795;DHT22;11564;50.920;11.612;2022-10-22T13:58:30;31.50;58.60
22795;DHT22;11564;50.920;11.612;2022-10-22T14:00:58;31.60;58.90
22795;DHT22;11564;50.920;11.612;2022-10-22T14:03:29;32.50;57.60
22795;DHT22;11564;50.920;11.612;2022-10-22T14:05:55;32.30;57.00
22795;DHT22;11564;50.920;11.612;2022-10-22T14:08:21;32.20;57.20
22795;DHT22;11564;50.920;11.612;2022-10-22T14:10:47;31.40;58.10
22795;DHT22;11564;50.920;11.612;2022-10-22T14:13:15;31.60;57.50
22795;DHT22;11564;50.920;11.612;2022-10-22T14:15:41;29.40;60.60
22795;DHT22;11564;50.920;11.612;2022-10-22T14:18:07;28.40;63.80
22795;DHT22;11564;50.920;11.612;2022-10-22T14:20:36;28.40;64.60
22795;DHT22;11564;50.920;11.612;2022-10-22T14:23:07;29.40;63.10
22795;DHT22;11564;50.920;11.612;2022-10-22T14:25:35;29.90;62.00
22795;DHT22;11564;50.920;11.612;2022-10-22T14:28:01;29.90;60.60
22795;DHT22;11564;50.920;11.612;2022-10-22T14:30:26;29.50;60.10
22795;DHT22;11564;50.920;11.612;2022-10-22T14:32:54;28.50;60.20
22795;DHT22;11564;50.920;11.612;2022-10-22T14:35:20;28.70;60.60
22795;DHT22;11564;50.920;11.612;2022-10-22T14:37:46;29.20;61.10
22795;DHT22;11564;50.920;11.612;2022-10-22T14:40:13;30.10;59.70
22795;DHT22;11564;50.920;11.612;2022-10-22T14:42:40;29.90;59.50
22795;DHT22;11564;50.920;11.612;2022-10-22T14:45:08;27.80;63.70
22795;DHT22;11564;50.920;11.612;2022-10-22T14:47:36;26.80;66.90
22795;DHT22;11564;50.920;11.612;2022-10-22T14:50:02;26.80;68.50
22795;DHT22;11564;50.920;11.612;2022-10-22T14:52:28;26.10;68.20
22795;DHT22;11564;50.920;11.612;2022-10-22T14:54:53;25.30;72.10
22795;DHT22;11564;50.920;11.612;2022-10-22T14:57:18;23.70;75.00
22795;DHT22;11564;50.920;11.612;2022-10-22T14:59:44;23.40;77.70
22795;DHT22;11564;50.920;11.612;2022-10-22T15:02:10;23.00;76.90
22795;DHT22;11564;50.920;11.612;2022-10-22T15:04:36;22.50;80.10
22795;DHT22;11564;50.920;11.612;2022-10-22T15:07:02;21.70;80.70
22795;DHT22;11564;50.920;11.612;2022-10-22T15:09:27;21.00;85.60
22795;DHT22;11564;50.920;11.612;2022-10-22T15:11:53;20.40;88.60
22795;DHT22;11564;50.920;11.612;2022-10-22T15:14:18;20.10;89.10
22795;DHT22;11564;50.920;11.612;2022-10-22T15:16:44;19.90;90.40
22795;DHT22;11564;50.920;11.612;2022-10-22T15:19:09;19.60;91.10
22795;DHT22;11564;50.920;11.612;2022-10-22T15:21:35;19.40;91.30
22795;DHT22;11564;50.920;11.612;2022-10-22T15:24:00;19.00;91.80
22795;DHT22;11564;50.920;11.612;2022-10-22T15:26:26;18.70;92.40
22795;DHT22;11564;50.920;11.612;2022-10-22T15:28:53;18.50;93.00
22795;DHT22;11564;50.920;11.612;2022-10-22T15:31:40;18.30;93.20
22795;DHT22;11564;50.920;11.612;2022-10-22T15:34:04;18.10;93.60
22795;DHT22;11564;50.920;11.612;2022-10-22T15:36:30;17.80;94.00
22795;DHT22;11564;50.920;11.612;2022-10-22T15:38:55;17.60;94.10
22795;DHT22;11564;50.920;11.612;2022-10-22T15:41:21;17.30;94.60
22795;DHT22;11564;50.920;11.612;2022-10-22T15:43:46;17.00;95.50
22795;DHT22;11564;50.920;11.612;2022-10-22T15:46:14;16.70;95.90
22795;DHT22;11564;50.920;11.612;2022-10-22T15:48:40;16.50;96.10
22795;DHT22;11564;50.920;11.612;2022-10-22T15:51:06;16.20;96.80
22795;DHT22;11564;50.920;11.612;2022-10-22T15:53:32;16.10;97.30
22795;DHT22;11564;50.920;11.612;2022-10-22T15:55:57;15.90;97.60
22795;DHT22;11564;50.920;11.612;2022-10-22T15:58:23;15.70;97.90
22795;DHT22;11564;50.920;11.612;2022-10-22T16:00:48;15.50;98.80
22795;DHT22;11564;50.920;11.612;2022-10-22T16:03:14;15.30;99.20
22795;DHT22;11564;50.920;11.612;2022-10-22T16:05:39;15.10;99.80
22795;DHT22;11564;50.920;11.612;2022-10-22T16:08:05;14.90;99.90
22795;DHT22;11564;50.920;11.612;2022-10-22T16:10:30;14.70;99.90
22795;DHT22;11564;50.920;11.612;2022-10-22T16:12:55;14.60;99.90
22795;DHT22;11564;50.920;11.612;2022-10-22T16:15:21;14.40;99.90
22795;DHT22;11564;50.920;11.612;2022-10-22T16:17:46;14.30;99.90
22795;DHT22;11564;50.920;11.612;2022-10-22T16:20:12;14.20;99.90
22795;DHT22;11564;50.920;11.612;2022-10-22T16:22:37;14.10;99.90
22795;DHT22;11564;50.920;11.612;2022-10-22T16:25:03;14.00;99.90
22795;DHT22;11564;50.920;11.612;2022-10-22T16:27:28;13.90;99.90
22795;DHT22;11564;50.920;11.612;2022-10-22T16:29:54;13.90;99.90
22795;DHT22;11564;50.920;11.612;2022-10-22T16:32:19;13.80;99.90
22795;DHT22;11564;50.920;11.612;2022-10-22T16:34:45;13.90;99.90
22795;DHT22;11564;50.920;11.612;2022-10-22T16:37:10;13.90;99.90
22795;DHT22;11564;50.920;11.612;2022-10-22T16:39:36;14.00;99.90
22795;DHT22;11564;50.920;11.612;2022-10-22T16:42:01;14.00;99.90
22795;DHT22;11564;50.920;11.612;2022-10-22T16:44:28;14.00;99.90
22795;DHT22;11564;50.920;11.612;2022-10-22T16:46:53;14.10;99.90
22795;DHT22;11564;50.920;11.612;2022-10-22T16:49:19;14.40;99.90
22795;DHT22;11564;50.920;11.612;2022-10-22T16:51:44;14.80;99.90
22795;DHT22;11564;50.920;11.612;2022-10-22T16:54:10;14.80;99.90
22795;DHT22;11564;50.920;11.612;2022-10-22T16:56:36;15.00;99.90
22795;DHT22;11564;50.920;11.612;2022-10-22T16:59:01;14.90;99.90
22795;DHT22;11564;50.920;11.612;2022-10-22T17:01:28;15.10;99.90
22795;DHT22;11564;50.920;11.612;2022-10-22T17:03:54;15.20;99.90